sensor_id;sensor_type;location;lat;lon;timestamp;P1;durP1;ratioP1;P2;durP2;ratioP2
60653;SDS011;46476;53.614;10.048;2022-09-09T00:04:37;26.13;;;17.58;;
60653;SDS011;46476;53.614;10.048;2022-09-09T00:07:12;24.70;;;16.60;;
60653;SDS011;46476;53.614;10.048;2022-09-09T00:13:22;25.50;;;16.67;;
60653;SDS011;46476;53.614;10.048;2022-09-09T00:16:50;26.13;;;17.50;;
60653;SDS011;46476;53.614;10.048;2022-09-09T00:22:33;26.90;;;17.88;;
60653;SDS011;46476;53.614;10.048;2022-09-09T00:28:29;26.85;;;18.05;;
60653;SDS011;46476;53.614;10.048;2022-09-09T00:31:54;25.25;;;18.42;;
60653;SDS011;46476;53.614;10.048;2022-09-09T00:35:04;28.55;;;19.65;;
60653;SDS011;46476;53.614;10.048;2022-09-09T00:38:19;26.80;;;17.65;;
60653;SDS011;46476;53.614;10.048;2022-09-09T00:44:46;27.83;;;18.75;;
60653;SDS011;46476;53.614;10.048;2022-09-09T00:51:15;29.58;;;18.17;;
60653;SDS011;46476;53.614;10.048;2022-09-09T00:57:58;28.80;;;18.58;;
60653;SDS011;46476;53.614;10.048;2022-09-09T01:00:56;25.35;;;17.08;;
60653;SDS011;46476;53.614;10.048;2022-09-09T01:03:59;25.77;;;16.65;;
60653;SDS011;46476;53.614;10.048;2022-09-09T01:07:20;22.35;;;14.77;;
60653;SDS011;46476;53.614;10.048;2022-09-09T01:26:43;21.13;;;13.82;;
60653;SDS011;46476;53.614;10.048;2022-09-09T01:29:28;23.00;;;13.85;;
60653;SDS011;46476;53.614;10.048;2022-09-09T01:32:54;19.40;;;11.85;;
60653;SDS011;46476;53.614;10.048;2022-09-09T01:35:46;19.73;;;12.32;;
60653;SDS011;46476;53.614;10.048;2022-09-09T01:38:19;18.88;;;12.35;;
60653;SDS011;46476;53.614;10.048;2022-09-09T01:40:45;16.73;;;11.80;;
60653;SDS011;46476;53.614;10.048;2022-09-09T01:43:12;16.42;;;11.75;;
60653;SDS011;46476;53.614;10.048;2022-09-09T01:45:39;17.88;;;12.50;;
60653;SDS011;46476;53.614;10.048;2022-09-09T01:48:07;15.88;;;10.98;;
60653;SDS011;46476;53.614;10.048;2022-09-09T01:50:33;16.35;;;11.52;;
60653;SDS011;46476;53.614;10.048;2022-09-09T01:53:22;15.55;;;11.07;;
60653;SDS011;46476;53.614;10.048;2022-09-09T02:08:07;16.10;;;11.65;;
60653;SDS011;46476;53.614;10.048;2022-09-09T02:11:23;18.08;;;12.55;;
60653;SDS011;46476;53.614;10.048;2022-09-09T02:14:50;16.13;;;11.75;;
60653;SDS011;46476;53.614;10.048;2022-09-09T02:17:24;16.60;;;11.43;;
60653;SDS011;46476;53.614;10.048;2022-09-09T02:20:07;16.50;;;11.88;;
60653;SDS011;46476;53.614;10.048;2022-09-09T02:22:35;17.77;;;12.20;;
60653;SDS011;46476;53.614;10.048;2022-09-09T02:25:06;15.85;;;11.07;;
60653;SDS011;46476;53.614;10.048;2022-09-09T02:27:47;16.00;;;11.93;;
60653;SDS011;46476;53.614;10.048;2022-09-09T02:30:15;17.50;;;12.18;;
60653;SDS011;46476;53.614;10.048;2022-09-09T02:32:43;17.45;;;12.48;;
60653;SDS011;46476;53.614;10.048;2022-09-09T02:35:24;17.30;;;12.35;;
60653;SDS011;46476;53.614;10.048;2022-09-09T02:37:56;19.88;;;12.32;;
60653;SDS011;46476;53.614;10.048;2022-09-09T02:40:24;16.52;;;12.23;;
60653;SDS011;46476;53.614;10.048;2022-09-09T02:42:50;17.88;;;12.20;;
60653;SDS011;46476;53.614;10.048;2022-09-09T02:45:16;18.10;;;12.25;;
60653;SDS011;46476;53.614;10.048;2022-09-09T02:47:48;19.67;;;12.77;;
60653;SDS011;46476;53.614;10.048;2022-09-09T02:50:19;17.95;;;12.73;;
60653;SDS011;46476;53.614;10.048;2022-09-09T02:55:37;17.40;;;12.50;;
60653;SDS011;46476;53.614;10.048;2022-09-09T02:58:17;18.58;;;12.02;;
60653;SDS011;46476;53.614;10.048;2022-09-09T03:00:44;18.25;;;12.77;;
60653;SDS011;46476;53.614;10.048;2022-09-09T03:03:12;19.30;;;12.80;;
60653;SDS011;46476;53.614;10.048;2022-09-09T03:05:37;18.08;;;12.18;;
60653;SDS011;46476;53.614;10.048;2022-09-09T03:08:03;16.90;;;11.80;;
60653;SDS011;46476;53.614;10.048;2022-09-09T03:10:30;16.17;;;11.77;;
60653;SDS011;46476;53.614;10.048;2022-09-09T03:12:55;18.77;;;12.02;;
60653;SDS011;46476;53.614;10.048;2022-09-09T03:15:21;16.17;;;12.00;;
60653;SDS011;46476;53.614;10.048;2022-09-09T03:17:46;15.90;;;11.10;;
60653;SDS011;46476;53.614;10.048;2022-09-09T03:20:12;16.35;;;10.82;;
60653;SDS011;46476;53.614;10.048;2022-09-09T03:22:37;15.70;;;11.02;;
60653;SDS011;46476;53.614;10.048;2022-09-09T03:25:03;16.77;;;11.40;;
60653;SDS011;46476;53.614;10.048;2022-09-09T03:27:29;14.40;;;11.70;;
60653;SDS011;46476;53.614;10.048;2022-09-09T03:29:54;15.52;;;10.48;;
60653;SDS011;46476;53.614;10.048;2022-09-09T03:32:20;14.85;;;10.63;;
60653;SDS011;46476;53.614;10.048;2022-09-09T03:34:47;19.75;;;10.18;;
60653;SDS011;46476;53.614;10.048;2022-09-09T03:37:15;15.18;;;10.90;;
60653;SDS011;46476;53.614;10.048;2022-09-09T03:39:41;16.70;;;10.90;;
60653;SDS011;46476;53.614;10.048;2022-09-09T03:42:07;14.55;;;10.55;;
60653;SDS011;46476;53.614;10.048;2022-09-09T03:44:32;14.20;;;10.60;;
60653;SDS011;46476;53.614;10.048;2022-09-09T03:46:58;16.05;;;10.30;;
60653;SDS011;46476;53.614;10.048;2022-09-09T03:49:25;15.40;;;10.57;;
60653;SDS011;46476;53.614;10.048;2022-09-09T03:51:51;13.50;;;10.10;;
60653;SDS011;46476;53.614;10.048;2022-09-09T03:54:17;13.98;;;9.93;;
60653;SDS011;46476;53.614;10.048;2022-09-09T03:56:42;13.75;;;9.55;;
60653;SDS011;46476;53.614;10.048;2022-09-09T03:59:08;11.57;;;9.32;;
60653;SDS011;46476;53.614;10.048;2022-09-09T04:01:36;14.45;;;9.88;;
60653;SDS011;46476;53.614;10.048;2022-09-09T04:04:02;14.43;;;10.60;;
60653;SDS011;46476;53.614;10.048;2022-09-09T04:06:27;14.07;;;10.30;;
60653;SDS011;46476;53.614;10.048;2022-09-09T04:08:53;14.13;;;9.90;;
60653;SDS011;46476;53.614;10.048;2022-09-09T04:11:20;13.18;;;9.63;;
60653;SDS011;46476;53.614;10.048;2022-09-09T04:13:45;13.02;;;9.55;;
60653;SDS011;46476;53.614;10.048;2022-09-09T04:16:11;13.85;;;9.77;;
60653;SDS011;46476;53.614;10.048;2022-09-09T04:18:38;13.48;;;9.70;;
60653;SDS011;46476;53.614;10.048;2022-09-09T04:21:04;14.45;;;9.75;;
60653;SDS011;46476;53.614;10.048;2022-09-09T04:23:30;11.75;;;8.85;;
60653;SDS011;46476;53.614;10.048;2022-09-09T04:25:56;12.13;;;9.13;;
60653;SDS011;46476;53.614;10.048;2022-09-09T04:28:23;12.15;;;9.20;;
60653;SDS011;46476;53.614;10.048;2022-09-09T04:30:51;13.77;;;9.27;;
60653;SDS011;46476;53.614;10.048;2022-09-09T04:33:17;11.45;;;8.60;;
60653;SDS011;46476;53.614;10.048;2022-09-09T04:35:44;12.73;;;9.05;;
60653;SDS011;46476;53.614;10.048;2022-09-09T04:38:12;11.57;;;8.48;;
60653;SDS011;46476;53.614;10.048;2022-09-09T04:40:38;10.05;;;8.32;;
60653;SDS011;46476;53.614;10.048;2022-09-09T04:43:07;11.55;;;8.40;;
60653;SDS011;46476;53.614;10.048;2022-09-09T04:45:33;11.35;;;8.40;;
60653;SDS011;46476;53.614;10.048;2022-09-09T04:47:59;9.05;;;7.22;;
60653;SDS011;46476;53.614;10.048;2022-09-09T04:50:24;10.48;;;7.82;;
60653;SDS011;46476;53.614;10.048;2022-09-09T04:52:50;8.75;;;6.80;;
60653;SDS011;46476;53.614;10.048;2022-09-09T04:55:15;9.88;;;7.70;;
60653;SDS011;46476;53.614;10.048;2022-09-09T04:57:41;9.02;;;7.20;;
60653;SDS011;46476;53.614;10.048;2022-09-09T05:00:06;8.75;;;7.18;;
60653;SDS011;46476;53.614;10.048;2022-09-09T05:02:32;9.75;;;6.82;;
60653;SDS011;46476;53.614;10.048;2022-09-09T05:04:58;8.90;;;7.05;;
60653;SDS011;46476;53.614;10.048;2022-09-09T05:07:23;8.45;;;6.57;;
60653;SDS011;46476;53.614;10.048;2022-09-09T05:09:50;8.32;;;6.53;;
60653;SDS011;46476;53.614;10.048;2022-09-09T05:12:15;8.32;;;6.63;;
60653;SDS011;46476;53.614;10.048;2022-09-09T05:14:42;9.57;;;6.78;;
60653;SDS011;46476;53.614;10.048;2022-09-09T05:17:07;8.98;;;7.53;;
60653;SDS011;46476;53.614;10.048;2022-09-09T05:19:33;8.80;;;7.30;;
60653;SDS011;46476;53.614;10.048;2022-09-09T05:21:58;7.75;;;6.95;;
60653;SDS011;46476;53.614;10.048;2022-09-09T05:24:23;7.75;;;6.65;;
60653;SDS011;46476;53.614;10.048;2022-09-09T05:26:49;7.82;;;6.60;;
60653;SDS011;46476;53.614;10.048;2022-09-09T05:29:14;8.57;;;6.13;;
60653;SDS011;46476;53.614;10.048;2022-09-09T05:31:39;8.25;;;6.43;;
60653;SDS011;46476;53.614;10.048;2022-09-09T05:34:06;7.45;;;6.10;;
60653;SDS011;46476;53.614;10.048;2022-09-09T05:36:31;8.30;;;6.50;;
60653;SDS011;46476;53.614;10.048;2022-09-09T05:38:56;9.50;;;6.20;;
60653;SDS011;46476;53.614;10.048;2022-09-09T05:41:22;7.25;;;5.78;;
60653;SDS011;46476;53.614;10.048;2022-09-09T05:43:48;7.93;;;6.47;;
60653;SDS011;46476;53.614;10.048;2022-09-09T05:46:15;7.68;;;5.97;;
60653;SDS011;46476;53.614;10.048;2022-09-09T05:48:45;9.43;;;6.57;;
60653;SDS011;46476;53.614;10.048;2022-09-09T05:51:13;7.75;;;6.30;;
60653;SDS011;46476;53.614;10.048;2022-09-09T05:53:43;8.35;;;6.60;;
60653;SDS011;46476;53.614;10.048;2022-09-09T05:56:13;8.70;;;6.25;;
60653;SDS011;46476;53.614;10.048;2022-09-09T05:58:43;9.02;;;6.28;;
60653;SDS011;46476;53.614;10.048;2022-09-09T06:01:09;7.50;;;5.78;;
60653;SDS011;46476;53.614;10.048;2022-09-09T06:03:37;8.30;;;5.72;;
60653;SDS011;46476;53.614;10.048;2022-09-09T06:06:04;7.57;;;6.32;;
60653;SDS011;46476;53.614;10.048;2022-09-09T06:08:31;7.45;;;5.53;;
60653;SDS011;46476;53.614;10.048;2022-09-09T06:11:01;7.35;;;5.53;;
60653;SDS011;46476;53.614;10.048;2022-09-09T06:13:29;7.63;;;5.22;;
60653;SDS011;46476;53.614;10.048;2022-09-09T06:15:54;6.70;;;5.30;;
60653;SDS011;46476;53.614;10.048;2022-09-09T06:18:20;7.95;;;5.65;;
60653;SDS011;46476;53.614;10.048;2022-09-09T06:23:29;8.77;;;5.13;;
60653;SDS011;46476;53.614;10.048;2022-09-09T06:26:02;8.02;;;4.93;;
60653;SDS011;46476;53.614;10.048;2022-09-09T06:28:34;9.70;;;4.78;;
60653;SDS011;46476;53.614;10.048;2022-09-09T06:31:02;7.07;;;4.97;;
60653;SDS011;46476;53.614;10.048;2022-09-09T06:33:36;5.63;;;4.63;;
60653;SDS011;46476;53.614;10.048;2022-09-09T06:36:06;9.05;;;4.90;;
60653;SDS011;46476;53.614;10.048;2022-09-09T06:38:35;6.57;;;4.20;;
60653;SDS011;46476;53.614;10.048;2022-09-09T06:41:00;5.32;;;4.15;;
60653;SDS011;46476;53.614;10.048;2022-09-09T06:43:26;6.80;;;4.43;;
60653;SDS011;46476;53.614;10.048;2022-09-09T06:45:53;5.85;;;4.32;;
60653;SDS011;46476;53.614;10.048;2022-09-09T06:48:19;6.72;;;5.22;;
60653;SDS011;46476;53.614;10.048;2022-09-09T06:50:45;6.65;;;3.95;;
60653;SDS011;46476;53.614;10.048;2022-09-09T06:53:11;7.00;;;4.15;;
60653;SDS011;46476;53.614;10.048;2022-09-09T06:55:36;7.15;;;3.90;;
60653;SDS011;46476;53.614;10.048;2022-09-09T06:58:01;7.10;;;4.10;;
60653;SDS011;46476;53.614;10.048;2022-09-09T07:00:27;6.65;;;4.20;;
60653;SDS011;46476;53.614;10.048;2022-09-09T07:02:52;4.38;;;3.97;;
60653;SDS011;46476;53.614;10.048;2022-09-09T07:05:18;6.47;;;4.10;;
60653;SDS011;46476;53.614;10.048;2022-09-09T07:07:43;6.45;;;3.45;;
60653;SDS011;46476;53.614;10.048;2022-09-09T07:10:08;5.13;;;3.78;;
60653;SDS011;46476;53.614;10.048;2022-09-09T07:12:34;7.65;;;3.47;;
60653;SDS011;46476;53.614;10.048;2022-09-09T07:14:59;4.05;;;3.40;;
60653;SDS011;46476;53.614;10.048;2022-09-09T07:17:25;4.88;;;3.38;;
60653;SDS011;46476;53.614;10.048;2022-09-09T07:19:50;4.32;;;3.05;;
60653;SDS011;46476;53.614;10.048;2022-09-09T07:22:15;5.07;;;3.17;;
60653;SDS011;46476;53.614;10.048;2022-09-09T07:24:41;5.20;;;3.75;;
60653;SDS011;46476;53.614;10.048;2022-09-09T07:27:06;6.30;;;3.03;;
60653;SDS011;46476;53.614;10.048;2022-09-09T07:29:31;3.83;;;3.15;;
60653;SDS011;46476;53.614;10.048;2022-09-09T07:31:56;6.05;;;3.05;;
60653;SDS011;46476;53.614;10.048;2022-09-09T07:34:23;3.40;;;2.53;;
60653;SDS011;46476;53.614;10.048;2022-09-09T07:36:48;3.83;;;3.08;;
60653;SDS011;46476;53.614;10.048;2022-09-09T07:39:14;4.07;;;2.88;;
60653;SDS011;46476;53.614;10.048;2022-09-09T07:41:40;5.63;;;3.10;;
60653;SDS011;46476;53.614;10.048;2022-09-09T07:44:14;5.57;;;3.17;;
60653;SDS011;46476;53.614;10.048;2022-09-09T07:46:41;4.65;;;2.97;;
60653;SDS011;46476;53.614;10.048;2022-09-09T07:49:07;3.78;;;2.70;;
60653;SDS011;46476;53.614;10.048;2022-09-09T07:51:37;4.57;;;2.90;;
60653;SDS011;46476;53.614;10.048;2022-09-09T07:54:05;3.33;;;2.77;;
60653;SDS011;46476;53.614;10.048;2022-09-09T07:56:34;4.43;;;2.40;;
60653;SDS011;46476;53.614;10.048;2022-09-09T07:59:00;3.88;;;2.72;;
60653;SDS011;46476;53.614;10.048;2022-09-09T08:01:27;5.47;;;2.95;;
60653;SDS011;46476;53.614;10.048;2022-09-09T08:03:59;4.22;;;2.70;;
60653;SDS011;46476;53.614;10.048;2022-09-09T08:06:29;3.25;;;2.88;;
60653;SDS011;46476;53.614;10.048;2022-09-09T08:08:58;5.28;;;2.53;;
60653;SDS011;46476;53.614;10.048;2022-09-09T08:11:24;3.88;;;2.58;;
60653;SDS011;46476;53.614;10.048;2022-09-09T08:13:51;7.05;;;3.30;;
60653;SDS011;46476;53.614;10.048;2022-09-09T08:16:18;5.90;;;2.70;;
60653;SDS011;46476;53.614;10.048;2022-09-09T08:18:47;3.25;;;2.40;;
60653;SDS011;46476;53.614;10.048;2022-09-09T08:21:18;3.05;;;2.35;;
60653;SDS011;46476;53.614;10.048;2022-09-09T08:23:45;2.58;;;1.98;;
60653;SDS011;46476;53.614;10.048;2022-09-09T08:26:16;3.67;;;2.00;;
60653;SDS011;46476;53.614;10.048;2022-09-09T08:28:52;4.43;;;2.58;;
60653;SDS011;46476;53.614;10.048;2022-09-09T08:33:53;3.83;;;2.28;;
60653;SDS011;46476;53.614;10.048;2022-09-09T08:36:20;5.20;;;2.03;;
60653;SDS011;46476;53.614;10.048;2022-09-09T08:38:48;5.50;;;2.50;;
60653;SDS011;46476;53.614;10.048;2022-09-09T08:43:40;2.63;;;2.20;;
60653;SDS011;46476;53.614;10.048;2022-09-09T08:46:12;3.60;;;2.28;;
60653;SDS011;46476;53.614;10.048;2022-09-09T08:51:24;4.85;;;2.40;;
60653;SDS011;46476;53.614;10.048;2022-09-09T08:53:52;3.08;;;2.05;;
60653;SDS011;46476;53.614;10.048;2022-09-09T08:56:23;3.88;;;2.90;;
60653;SDS011;46476;53.614;10.048;2022-09-09T08:58:52;4.93;;;2.50;;
60653;SDS011;46476;53.614;10.048;2022-09-09T09:01:35;3.47;;;2.47;;
60653;SDS011;46476;53.614;10.048;2022-09-09T09:04:38;3.92;;;2.47;;
60653;SDS011;46476;53.614;10.048;2022-09-09T09:10:13;4.32;;;2.55;;
60653;SDS011;46476;53.614;10.048;2022-09-09T09:12:41;3.40;;;2.25;;
60653;SDS011;46476;53.614;10.048;2022-09-09T09:15:11;3.00;;;2.25;;
60653;SDS011;46476;53.614;10.048;2022-09-09T09:17:43;4.88;;;2.60;;
60653;SDS011;46476;53.614;10.048;2022-09-09T09:20:12;4.25;;;2.35;;
60653;SDS011;46476;53.614;10.048;2022-09-09T09:22:43;3.63;;;2.53;;
60653;SDS011;46476;53.614;10.048;2022-09-09T09:25:20;2.85;;;2.35;;
60653;SDS011;46476;53.614;10.048;2022-09-09T09:28:02;3.33;;;2.28;;
60653;SDS011;46476;53.614;10.048;2022-09-09T09:30:50;3.83;;;2.55;;
60653;SDS011;46476;53.614;10.048;2022-09-09T09:33:27;5.53;;;2.20;;
60653;SDS011;46476;53.614;10.048;2022-09-09T09:36:06;2.80;;;2.20;;
60653;SDS011;46476;53.614;10.048;2022-09-09T09:38:33;5.47;;;2.42;;
60653;SDS011;46476;53.614;10.048;2022-09-09T09:40:59;3.47;;;2.17;;
60653;SDS011;46476;53.614;10.048;2022-09-09T09:43:35;4.15;;;2.13;;
60653;SDS011;46476;53.614;10.048;2022-09-09T09:46:04;4.32;;;1.90;;
60653;SDS011;46476;53.614;10.048;2022-09-09T09:48:42;3.25;;;1.63;;
60653;SDS011;46476;53.614;10.048;2022-09-09T09:51:11;3.10;;;1.77;;
60653;SDS011;46476;53.614;10.048;2022-09-09T09:53:41;3.60;;;1.80;;
60653;SDS011;46476;53.614;10.048;2022-09-09T09:56:08;1.77;;;1.20;;
60653;SDS011;46476;53.614;10.048;2022-09-09T10:03:53;3.50;;;1.30;;
60653;SDS011;46476;53.614;10.048;2022-09-09T10:06:30;3.85;;;1.20;;
60653;SDS011;46476;53.614;10.048;2022-09-09T10:08:58;4.65;;;1.20;;
60653;SDS011;46476;53.614;10.048;2022-09-09T10:11:30;3.10;;;1.00;;
60653;SDS011;46476;53.614;10.048;2022-09-09T10:16:49;1.83;;;0.82;;
60653;SDS011;46476;53.614;10.048;2022-09-09T10:19:33;2.60;;;1.40;;
60653;SDS011;46476;53.614;10.048;2022-09-09T10:38:17;1.40;;;0.75;;
60653;SDS011;46476;53.614;10.048;2022-09-09T10:46:20;1.17;;;0.82;;
60653;SDS011;46476;53.614;10.048;2022-09-09T10:57:25;2.05;;;0.80;;
60653;SDS011;46476;53.614;10.048;2022-09-09T10:59:57;2.25;;;0.88;;
60653;SDS011;46476;53.614;10.048;2022-09-09T11:02:29;2.45;;;0.90;;
60653;SDS011;46476;53.614;10.048;2022-09-09T11:07:37;2.45;;;0.73;;
60653;SDS011;46476;53.614;10.048;2022-09-09T11:10:19;1.88;;;0.77;;
60653;SDS011;46476;53.614;10.048;2022-09-09T11:12:46;2.15;;;0.60;;
60653;SDS011;46476;53.614;10.048;2022-09-09T11:15:17;1.05;;;0.57;;
60653;SDS011;46476;53.614;10.048;2022-09-09T11:17:58;1.80;;;0.80;;
60653;SDS011;46476;53.614;10.048;2022-09-09T11:20:28;1.35;;;0.68;;
60653;SDS011;46476;53.614;10.048;2022-09-09T11:22:59;0.95;;;0.60;;
60653;SDS011;46476;53.614;10.048;2022-09-09T11:25:37;1.23;;;0.70;;
60653;SDS011;46476;53.614;10.048;2022-09-09T11:31:55;1.15;;;0.65;;
60653;SDS011;46476;53.614;10.048;2022-09-09T11:37:07;1.30;;;0.80;;
60653;SDS011;46476;53.614;10.048;2022-09-09T11:42:46;2.10;;;0.90;;
60653;SDS011;46476;53.614;10.048;2022-09-09T11:45:24;3.25;;;1.00;;
60653;SDS011;46476;53.614;10.048;2022-09-09T11:47:54;2.38;;;0.90;;
60653;SDS011;46476;53.614;10.048;2022-09-09T11:50:28;3.03;;;0.90;;
60653;SDS011;46476;53.614;10.048;2022-09-09T11:53:05;1.90;;;0.90;;
60653;SDS011;46476;53.614;10.048;2022-09-09T11:55:45;1.92;;;0.82;;
60653;SDS011;46476;53.614;10.048;2022-09-09T12:00:37;2.45;;;0.80;;
60653;SDS011;46476;53.614;10.048;2022-09-09T12:03:08;2.85;;;0.82;;
60653;SDS011;46476;53.614;10.048;2022-09-09T12:06:09;1.80;;;0.57;;
60653;SDS011;46476;53.614;10.048;2022-09-09T12:08:39;0.82;;;0.60;;
60653;SDS011;46476;53.614;10.048;2022-09-09T12:11:07;0.95;;;0.70;;
60653;SDS011;46476;53.614;10.048;2022-09-09T12:13:32;1.92;;;0.77;;
60653;SDS011;46476;53.614;10.048;2022-09-09T12:15:59;1.95;;;0.80;;
60653;SDS011;46476;53.614;10.048;2022-09-09T12:18:34;4.43;;;0.80;;
60653;SDS011;46476;53.614;10.048;2022-09-09T12:21:10;4.47;;;0.90;;
60653;SDS011;46476;53.614;10.048;2022-09-09T12:23:57;2.53;;;0.85;;
60653;SDS011;46476;53.614;10.048;2022-09-09T12:26:53;2.22;;;0.80;;
60653;SDS011;46476;53.614;10.048;2022-09-09T12:32:20;1.85;;;0.80;;
60653;SDS011;46476;53.614;10.048;2022-09-09T12:34:53;1.50;;;0.80;;
60653;SDS011;46476;53.614;10.048;2022-09-09T12:37:26;1.88;;;0.77;;
60653;SDS011;46476;53.614;10.048;2022-09-09T12:39:59;1.20;;;0.70;;
60653;SDS011;46476;53.614;10.048;2022-09-09T12:42:27;2.50;;;0.75;;
60653;SDS011;46476;53.614;10.048;2022-09-09T12:44:54;3.10;;;0.90;;
60653;SDS011;46476;53.614;10.048;2022-09-09T12:47:22;2.67;;;0.90;;
60653;SDS011;46476;53.614;10.048;2022-09-09T12:50:23;3.03;;;0.80;;
60653;SDS011;46476;53.614;10.048;2022-09-09T12:52:51;2.53;;;0.80;;
60653;SDS011;46476;53.614;10.048;2022-09-09T12:55:20;1.58;;;0.70;;
60653;SDS011;46476;53.614;10.048;2022-09-09T12:57:50;1.98;;;1.00;;
60653;SDS011;46476;53.614;10.048;2022-09-09T13:00:18;3.90;;;1.02;;
60653;SDS011;46476;53.614;10.048;2022-09-09T13:02:57;1.83;;;0.90;;
60653;SDS011;46476;53.614;10.048;2022-09-09T13:05:25;3.72;;;1.38;;
60653;SDS011;46476;53.614;10.048;2022-09-09T13:08:00;2.10;;;0.95;;
60653;SDS011;46476;53.614;10.048;2022-09-09T13:10:29;3.70;;;1.17;;
60653;SDS011;46476;53.614;10.048;2022-09-09T13:12:58;4.05;;;1.02;;
60653;SDS011;46476;53.614;10.048;2022-09-09T13:15:25;2.08;;;0.75;;
60653;SDS011;46476;53.614;10.048;2022-09-09T13:17:57;2.58;;;1.20;;
60653;SDS011;46476;53.614;10.048;2022-09-09T13:20:25;1.40;;;1.23;;
60653;SDS011;46476;53.614;10.048;2022-09-09T13:22:51;1.30;;;1.20;;
60653;SDS011;46476;53.614;10.048;2022-09-09T13:25:27;1.77;;;1.02;;
60653;SDS011;46476;53.614;10.048;2022-09-09T13:28:00;1.95;;;1.08;;
60653;SDS011;46476;53.614;10.048;2022-09-09T13:36:13;2.83;;;1.08;;
60653;SDS011;46476;53.614;10.048;2022-09-09T13:41:19;1.33;;;0.82;;
60653;SDS011;46476;53.614;10.048;2022-09-09T13:43:46;2.00;;;0.80;;
60653;SDS011;46476;53.614;10.048;2022-09-09T13:48:59;2.08;;;1.00;;
60653;SDS011;46476;53.614;10.048;2022-09-09T13:51:32;2.28;;;1.45;;
60653;SDS011;46476;53.614;10.048;2022-09-09T13:54:00;4.25;;;1.40;;
60653;SDS011;46476;53.614;10.048;2022-09-09T13:56:26;3.05;;;1.35;;
60653;SDS011;46476;53.614;10.048;2022-09-09T13:58:51;2.80;;;1.00;;
60653;SDS011;46476;53.614;10.048;2022-09-09T14:01:17;3.85;;;1.08;;
60653;SDS011;46476;53.614;10.048;2022-09-09T14:03:42;3.10;;;1.33;;
60653;SDS011;46476;53.614;10.048;2022-09-09T14:06:08;3.13;;;1.20;;
60653;SDS011;46476;53.614;10.048;2022-09-09T14:08:35;2.45;;;1.10;;
60653;SDS011;46476;53.614;10.048;2022-09-09T14:11:02;3.38;;;1.30;;
60653;SDS011;46476;53.614;10.048;2022-09-09T14:13:28;2.78;;;1.23;;
60653;SDS011;46476;53.614;10.048;2022-09-09T14:15:54;3.30;;;1.08;;
60653;SDS011;46476;53.614;10.048;2022-09-09T14:18:19;2.83;;;1.25;;
60653;SDS011;46476;53.614;10.048;2022-09-09T14:20:45;3.67;;;1.10;;
60653;SDS011;46476;53.614;10.048;2022-09-09T14:23:11;2.70;;;1.50;;
60653;SDS011;46476;53.614;10.048;2022-09-09T14:25:39;2.80;;;1.50;;
60653;SDS011;46476;53.614;10.048;2022-09-09T14:28:05;3.72;;;1.77;;
60653;SDS011;46476;53.614;10.048;2022-09-09T14:30:33;3.97;;;1.60;;
60653;SDS011;46476;53.614;10.048;2022-09-09T14:32:59;3.78;;;1.77;;
60653;SDS011;46476;53.614;10.048;2022-09-09T14:35:25;2.00;;;1.55;;
60653;SDS011;46476;53.614;10.048;2022-09-09T14:37:50;3.40;;;1.65;;
60653;SDS011;46476;53.614;10.048;2022-09-09T14:40:16;3.67;;;1.50;;
60653;SDS011;46476;53.614;10.048;2022-09-09T14:42:41;2.35;;;1.52;;
60653;SDS011;46476;53.614;10.048;2022-09-09T14:45:07;4.50;;;1.60;;
60653;SDS011;46476;53.614;10.048;2022-09-09T14:47:32;3.50;;;1.60;;
60653;SDS011;46476;53.614;10.048;2022-09-09T14:49:57;2.20;;;1.55;;
60653;SDS011;46476;53.614;10.048;2022-09-09T14:52:23;3.88;;;2.00;;
60653;SDS011;46476;53.614;10.048;2022-09-09T14:54:48;2.67;;;1.60;;
60653;SDS011;46476;53.614;10.048;2022-09-09T14:57:14;3.60;;;1.90;;
60653;SDS011;46476;53.614;10.048;2022-09-09T14:59:39;3.47;;;2.10;;
60653;SDS011;46476;53.614;10.048;2022-09-09T15:02:05;5.00;;;2.30;;
60653;SDS011;46476;53.614;10.048;2022-09-09T15:04:36;4.15;;;2.10;;
60653;SDS011;46476;53.614;10.048;2022-09-09T15:07:08;4.85;;;1.80;;
60653;SDS011;46476;53.614;10.048;2022-09-09T15:10:29;3.47;;;1.70;;
60653;SDS011;46476;53.614;10.048;2022-09-09T15:12:56;3.35;;;1.50;;
60653;SDS011;46476;53.614;10.048;2022-09-09T15:15:22;3.33;;;1.40;;
60653;SDS011;46476;53.614;10.048;2022-09-09T15:17:47;4.18;;;1.60;;
60653;SDS011;46476;53.614;10.048;2022-09-09T15:20:13;3.40;;;1.40;;
60653;SDS011;46476;53.614;10.048;2022-09-09T15:22:38;1.80;;;1.05;;
60653;SDS011;46476;53.614;10.048;2022-09-09T15:25:21;4.05;;;1.40;;
60653;SDS011;46476;53.614;10.048;2022-09-09T15:28:16;2.05;;;1.10;;
60653;SDS011;46476;53.614;10.048;2022-09-09T15:30:54;1.63;;;1.00;;
60653;SDS011;46476;53.614;10.048;2022-09-09T15:33:31;2.10;;;1.30;;
60653;SDS011;46476;53.614;10.048;2022-09-09T15:39:44;2.35;;;1.10;;
60653;SDS011;46476;53.614;10.048;2022-09-09T15:48:59;2.47;;;1.10;;
60653;SDS011;46476;53.614;10.048;2022-09-09T15:51:58;1.63;;;0.90;;
60653;SDS011;46476;53.614;10.048;2022-09-09T15:54:28;2.70;;;1.02;;
60653;SDS011;46476;53.614;10.048;2022-09-09T16:00:32;4.05;;;1.45;;
60653;SDS011;46476;53.614;10.048;2022-09-09T16:06:22;4.07;;;1.48;;
60653;SDS011;46476;53.614;10.048;2022-09-09T16:08:58;3.67;;;1.25;;
60653;SDS011;46476;53.614;10.048;2022-09-09T16:11:50;3.38;;;1.50;;
60653;SDS011;46476;53.614;10.048;2022-09-09T16:14:31;2.85;;;1.27;;
60653;SDS011;46476;53.614;10.048;2022-09-09T16:20:58;1.63;;;0.88;;
60653;SDS011;46476;53.614;10.048;2022-09-09T16:23:42;2.40;;;1.23;;
60653;SDS011;46476;53.614;10.048;2022-09-09T16:26:50;4.10;;;1.50;;
60653;SDS011;46476;53.614;10.048;2022-09-09T16:29:39;2.22;;;1.30;;
60653;SDS011;46476;53.614;10.048;2022-09-09T16:32:31;1.92;;;1.15;;
60653;SDS011;46476;53.614;10.048;2022-09-09T16:35:09;2.10;;;1.08;;
60653;SDS011;46476;53.614;10.048;2022-09-09T16:37:35;2.25;;;1.10;;
60653;SDS011;46476;53.614;10.048;2022-09-09T16:40:26;2.75;;;1.30;;
60653;SDS011;46476;53.614;10.048;2022-09-09T16:42:55;2.67;;;1.38;;
60653;SDS011;46476;53.614;10.048;2022-09-09T16:45:20;2.35;;;1.30;;
60653;SDS011;46476;53.614;10.048;2022-09-09T16:47:46;2.75;;;1.35;;
60653;SDS011;46476;53.614;10.048;2022-09-09T16:50:13;2.53;;;1.20;;
60653;SDS011;46476;53.614;10.048;2022-09-09T16:52:39;1.52;;;0.90;;
60653;SDS011;46476;53.614;10.048;2022-09-09T16:55:04;2.25;;;1.15;;
60653;SDS011;46476;53.614;10.048;2022-09-09T16:57:30;2.22;;;1.20;;
60653;SDS011;46476;53.614;10.048;2022-09-09T16:59:55;3.78;;;1.27;;
60653;SDS011;46476;53.614;10.048;2022-09-09T17:02:24;3.22;;;1.35;;
60653;SDS011;46476;53.614;10.048;2022-09-09T17:04:49;2.45;;;1.20;;
60653;SDS011;46476;53.614;10.048;2022-09-09T17:07:14;2.53;;;1.23;;
60653;SDS011;46476;53.614;10.048;2022-09-09T17:09:40;2.65;;;1.08;;
60653;SDS011;46476;53.614;10.048;2022-09-09T17:12:05;3.10;;;1.15;;
60653;SDS011;46476;53.614;10.048;2022-09-09T17:14:31;1.90;;;1.35;;
60653;SDS011;46476;53.614;10.048;2022-09-09T17:16:56;2.75;;;1.38;;
60653;SDS011;46476;53.614;10.048;2022-09-09T17:19:22;2.75;;;1.35;;
60653;SDS011;46476;53.614;10.048;2022-09-09T17:21:47;2.58;;;1.50;;
60653;SDS011;46476;53.614;10.048;2022-09-09T17:24:13;5.25;;;1.50;;
60653;SDS011;46476;53.614;10.048;2022-09-09T17:26:39;2.75;;;1.20;;
60653;SDS011;46476;53.614;10.048;2022-09-09T17:29:05;3.42;;;1.17;;
60653;SDS011;46476;53.614;10.048;2022-09-09T17:31:31;2.47;;;1.40;;